sensor_id;sensor_type;location;lat;lon;timestamp;P1;durP1;ratioP1;P2;durP2;ratioP2
47225;SDS011;32965;64.142;-21.912;2022-07-18T00:01:43;4.68;;;2.40;;
47225;SDS011;32965;64.142;-21.912;2022-07-18T00:04:09;2.50;;;1.50;;
47225;SDS011;32965;64.142;-21.912;2022-07-18T00:06:34;2.00;;;1.58;;
47225;SDS011;32965;64.142;-21.912;2022-07-18T00:09:00;1.77;;;1.60;;
47225;SDS011;32965;64.142;-21.912;2022-07-18T00:11:27;2.88;;;1.67;;
47225;SDS011;32965;64.142;-21.912;2022-07-18T00:13:53;3.45;;;1.83;;
47225;SDS011;32965;64.142;-21.912;2022-07-18T00:16:19;1.98;;;1.48;;
47225;SDS011;32965;64.142;-21.912;2022-07-18T00:18:45;4.00;;;2.10;;
47225;SDS011;32965;64.142;-21.912;2022-07-18T00:21:10;2.88;;;2.30;;
47225;SDS011;32965;64.142;-21.912;2022-07-18T00:23:37;4.53;;;2.08;;
47225;SDS011;32965;64.142;-21.912;2022-07-18T00:26:03;5.22;;;2.35;;
47225;SDS011;32965;64.142;-21.912;2022-07-18T00:28:29;4.93;;;2.35;;
47225;SDS011;32965;64.142;-21.912;2022-07-18T00:30:55;3.95;;;2.35;;
47225;SDS011;32965;64.142;-21.912;2022-07-18T00:33:20;5.78;;;3.15;;
47225;SDS011;32965;64.142;-21.912;2022-07-18T00:35:46;5.82;;;3.17;;
47225;SDS011;32965;64.142;-21.912;2022-07-18T00:38:12;5.15;;;2.50;;
47225;SDS011;32965;64.142;-21.912;2022-07-18T00:40:38;4.10;;;2.15;;
47225;SDS011;32965;64.142;-21.912;2022-07-18T00:43:04;4.68;;;2.38;;
47225;SDS011;32965;64.142;-21.912;2022-07-18T00:45:30;3.75;;;2.30;;
47225;SDS011;32965;64.142;-21.912;2022-07-18T00:47:56;4.15;;;2.35;;
47225;SDS011;32965;64.142;-21.912;2022-07-18T00:50:22;3.67;;;2.67;;
47225;SDS011;32965;64.142;-21.912;2022-07-18T00:52:48;5.63;;;2.78;;
47225;SDS011;32965;64.142;-21.912;2022-07-18T00:55:14;6.60;;;2.78;;
47225;SDS011;32965;64.142;-21.912;2022-07-18T00:57:41;4.55;;;2.50;;
47225;SDS011;32965;64.142;-21.912;2022-07-18T01:00:11;9.73;;;3.60;;
47225;SDS011;32965;64.142;-21.912;2022-07-18T01:02:57;4.65;;;2.72;;
47225;SDS011;32965;64.142;-21.912;2022-07-18T01:05:24;4.88;;;2.50;;
47225;SDS011;32965;64.142;-21.912;2022-07-18T01:07:50;5.40;;;2.97;;
47225;SDS011;32965;64.142;-21.912;2022-07-18T01:10:19;3.38;;;2.53;;
47225;SDS011;32965;64.142;-21.912;2022-07-18T01:12:45;6.53;;;2.80;;
47225;SDS011;32965;64.142;-21.912;2022-07-18T01:15:11;5.85;;;2.97;;
47225;SDS011;32965;64.142;-21.912;2022-07-18T01:17:37;4.00;;;2.38;;
47225;SDS011;32965;64.142;-21.912;2022-07-18T01:20:03;4.28;;;2.47;;
47225;SDS011;32965;64.142;-21.912;2022-07-18T01:22:30;4.03;;;2.53;;
47225;SDS011;32965;64.142;-21.912;2022-07-18T01:24:55;4.65;;;2.90;;
47225;SDS011;32965;64.142;-21.912;2022-07-18T01:27:21;5.03;;;2.80;;
47225;SDS011;32965;64.142;-21.912;2022-07-18T01:29:48;3.67;;;2.58;;
47225;SDS011;32965;64.142;-21.912;2022-07-18T01:32:15;4.13;;;2.50;;
47225;SDS011;32965;64.142;-21.912;2022-07-18T01:34:42;3.80;;;2.83;;
47225;SDS011;32965;64.142;-21.912;2022-07-18T01:37:09;3.38;;;2.40;;
47225;SDS011;32965;64.142;-21.912;2022-07-18T01:39:35;9.73;;;3.85;;
47225;SDS011;32965;64.142;-21.912;2022-07-18T01:42:03;4.15;;;2.90;;
47225;SDS011;32965;64.142;-21.912;2022-07-18T01:44:32;4.85;;;3.03;;
47225;SDS011;32965;64.142;-21.912;2022-07-18T01:46:59;5.05;;;3.03;;
47225;SDS011;32965;64.142;-21.912;2022-07-18T01:49:26;5.57;;;3.08;;
47225;SDS011;32965;64.142;-21.912;2022-07-18T01:51:53;5.75;;;3.50;;
47225;SDS011;32965;64.142;-21.912;2022-07-18T01:54:20;4.03;;;3.13;;
47225;SDS011;32965;64.142;-21.912;2022-07-18T01:56:47;5.20;;;3.00;;
47225;SDS011;32965;64.142;-21.912;2022-07-18T01:59:12;5.60;;;2.90;;
47225;SDS011;32965;64.142;-21.912;2022-07-18T02:01:38;4.90;;;2.92;;
47225;SDS011;32965;64.142;-21.912;2022-07-18T02:04:05;4.45;;;3.03;;
47225;SDS011;32965;64.142;-21.912;2022-07-18T02:06:32;5.07;;;3.33;;
47225;SDS011;32965;64.142;-21.912;2022-07-18T02:08:58;4.72;;;3.00;;
47225;SDS011;32965;64.142;-21.912;2022-07-18T02:11:24;4.32;;;2.75;;
47225;SDS011;32965;64.142;-21.912;2022-07-18T02:13:49;3.70;;;2.40;;
47225;SDS011;32965;64.142;-21.912;2022-07-18T02:16:15;2.78;;;2.03;;
47225;SDS011;32965;64.142;-21.912;2022-07-18T02:18:41;3.75;;;2.50;;
47225;SDS011;32965;64.142;-21.912;2022-07-18T02:21:07;4.25;;;2.00;;
47225;SDS011;32965;64.142;-21.912;2022-07-18T02:23:33;6.47;;;3.38;;
47225;SDS011;32965;64.142;-21.912;2022-07-18T02:25:59;7.38;;;4.43;;
47225;SDS011;32965;64.142;-21.912;2022-07-18T02:28:25;9.15;;;5.28;;
47225;SDS011;32965;64.142;-21.912;2022-07-18T02:30:52;7.90;;;4.93;;
47225;SDS011;32965;64.142;-21.912;2022-07-18T02:33:18;12.13;;;7.53;;
47225;SDS011;32965;64.142;-21.912;2022-07-18T02:35:44;10.98;;;7.20;;
47225;SDS011;32965;64.142;-21.912;2022-07-18T02:38:10;12.13;;;8.43;;
47225;SDS011;32965;64.142;-21.912;2022-07-18T02:40:36;12.38;;;8.02;;
47225;SDS011;32965;64.142;-21.912;2022-07-18T02:43:02;13.07;;;7.75;;
47225;SDS011;32965;64.142;-21.912;2022-07-18T02:45:29;11.32;;;7.45;;
47225;SDS011;32965;64.142;-21.912;2022-07-18T02:47:55;10.20;;;6.78;;
47225;SDS011;32965;64.142;-21.912;2022-07-18T02:50:21;8.27;;;5.82;;
47225;SDS011;32965;64.142;-21.912;2022-07-18T02:52:47;9.35;;;5.53;;
47225;SDS011;32965;64.142;-21.912;2022-07-18T02:55:15;5.93;;;3.70;;
47225;SDS011;32965;64.142;-21.912;2022-07-18T02:57:42;5.80;;;3.35;;
47225;SDS011;32965;64.142;-21.912;2022-07-18T03:00:09;6.38;;;3.70;;
47225;SDS011;32965;64.142;-21.912;2022-07-18T03:02:37;6.15;;;3.00;;
47225;SDS011;32965;64.142;-21.912;2022-07-18T03:05:03;7.97;;;3.38;;
47225;SDS011;32965;64.142;-21.912;2022-07-18T03:07:30;6.85;;;3.75;;
47225;SDS011;32965;64.142;-21.912;2022-07-18T03:09:57;8.27;;;5.75;;
47225;SDS011;32965;64.142;-21.912;2022-07-18T03:12:22;7.78;;;6.05;;
47225;SDS011;32965;64.142;-21.912;2022-07-18T03:14:48;8.60;;;6.57;;
47225;SDS011;32965;64.142;-21.912;2022-07-18T03:17:14;10.27;;;7.82;;
47225;SDS011;32965;64.142;-21.912;2022-07-18T03:19:40;10.05;;;7.15;;
47225;SDS011;32965;64.142;-21.912;2022-07-18T03:22:06;9.05;;;7.18;;
47225;SDS011;32965;64.142;-21.912;2022-07-18T03:24:33;10.18;;;6.60;;
47225;SDS011;32965;64.142;-21.912;2022-07-18T03:26:59;10.02;;;6.30;;
47225;SDS011;32965;64.142;-21.912;2022-07-18T03:29:25;7.00;;;5.00;;
47225;SDS011;32965;64.142;-21.912;2022-07-18T03:31:51;5.25;;;3.95;;
47225;SDS011;32965;64.142;-21.912;2022-07-18T03:34:17;5.32;;;3.38;;
47225;SDS011;32965;64.142;-21.912;2022-07-18T03:36:43;4.38;;;3.00;;
47225;SDS011;32965;64.142;-21.912;2022-07-18T03:39:10;6.03;;;3.33;;
47225;SDS011;32965;64.142;-21.912;2022-07-18T03:41:37;4.47;;;2.92;;
47225;SDS011;32965;64.142;-21.912;2022-07-18T03:44:04;5.47;;;3.47;;
47225;SDS011;32965;64.142;-21.912;2022-07-18T03:46:31;3.97;;;2.42;;
47225;SDS011;32965;64.142;-21.912;2022-07-18T03:48:57;3.72;;;2.13;;
47225;SDS011;32965;64.142;-21.912;2022-07-18T03:51:23;4.70;;;2.20;;
47225;SDS011;32965;64.142;-21.912;2022-07-18T03:53:50;4.70;;;2.42;;
47225;SDS011;32965;64.142;-21.912;2022-07-18T03:56:16;3.80;;;2.42;;
47225;SDS011;32965;64.142;-21.912;2022-07-18T03:58:43;3.30;;;2.35;;
47225;SDS011;32965;64.142;-21.912;2022-07-18T04:01:08;4.13;;;2.35;;
47225;SDS011;32965;64.142;-21.912;2022-07-18T04:03:34;3.95;;;2.13;;
47225;SDS011;32965;64.142;-21.912;2022-07-18T04:06:00;3.53;;;2.42;;
47225;SDS011;32965;64.142;-21.912;2022-07-18T04:08:26;2.85;;;2.30;;
47225;SDS011;32965;64.142;-21.912;2022-07-18T04:10:52;3.78;;;2.40;;
47225;SDS011;32965;64.142;-21.912;2022-07-18T04:13:18;4.85;;;3.45;;
47225;SDS011;32965;64.142;-21.912;2022-07-18T04:15:44;6.03;;;3.80;;
47225;SDS011;32965;64.142;-21.912;2022-07-18T04:18:09;8.02;;;4.63;;
47225;SDS011;32965;64.142;-21.912;2022-07-18T04:20:36;8.57;;;4.32;;
47225;SDS011;32965;64.142;-21.912;2022-07-18T04:23:05;7.33;;;3.73;;
47225;SDS011;32965;64.142;-21.912;2022-07-18T04:25:35;5.25;;;3.17;;
47225;SDS011;32965;64.142;-21.912;2022-07-18T04:28:06;5.07;;;3.20;;
47225;SDS011;32965;64.142;-21.912;2022-07-18T04:30:32;3.97;;;2.42;;
47225;SDS011;32965;64.142;-21.912;2022-07-18T04:33:00;3.13;;;2.42;;
47225;SDS011;32965;64.142;-21.912;2022-07-18T04:35:30;3.58;;;2.30;;
47225;SDS011;32965;64.142;-21.912;2022-07-18T04:37:56;3.35;;;2.00;;
47225;SDS011;32965;64.142;-21.912;2022-07-18T04:40:22;2.85;;;1.92;;
47225;SDS011;32965;64.142;-21.912;2022-07-18T04:42:48;4.60;;;2.78;;
47225;SDS011;32965;64.142;-21.912;2022-07-18T04:45:15;3.28;;;1.80;;
47225;SDS011;32965;64.142;-21.912;2022-07-18T04:47:41;4.55;;;2.78;;
47225;SDS011;32965;64.142;-21.912;2022-07-18T04:50:07;7.68;;;3.25;;
47225;SDS011;32965;64.142;-21.912;2022-07-18T04:52:39;7.13;;;4.95;;
47225;SDS011;32965;64.142;-21.912;2022-07-18T04:55:07;11.07;;;5.07;;
47225;SDS011;32965;64.142;-21.912;2022-07-18T04:57:35;7.70;;;4.82;;
47225;SDS011;32965;64.142;-21.912;2022-07-18T05:00:03;5.75;;;3.72;;
47225;SDS011;32965;64.142;-21.912;2022-07-18T05:04:56;4.43;;;2.33;;
47225;SDS011;32965;64.142;-21.912;2022-07-18T05:07:22;3.67;;;2.10;;
47225;SDS011;32965;64.142;-21.912;2022-07-18T05:09:47;5.28;;;2.22;;
47225;SDS011;32965;64.142;-21.912;2022-07-18T05:12:13;3.15;;;2.42;;
47225;SDS011;32965;64.142;-21.912;2022-07-18T05:14:39;3.80;;;2.25;;
47225;SDS011;32965;64.142;-21.912;2022-07-18T05:17:05;6.07;;;2.47;;
47225;SDS011;32965;64.142;-21.912;2022-07-18T05:19:31;3.53;;;2.60;;
47225;SDS011;32965;64.142;-21.912;2022-07-18T05:21:56;4.07;;;2.42;;
47225;SDS011;32965;64.142;-21.912;2022-07-18T05:24:22;4.15;;;2.17;;
47225;SDS011;32965;64.142;-21.912;2022-07-18T05:26:48;4.53;;;2.08;;
47225;SDS011;32965;64.142;-21.912;2022-07-18T05:29:13;2.67;;;1.42;;
47225;SDS011;32965;64.142;-21.912;2022-07-18T05:31:40;6.13;;;1.58;;
47225;SDS011;32965;64.142;-21.912;2022-07-18T05:34:06;6.22;;;2.00;;
47225;SDS011;32965;64.142;-21.912;2022-07-18T05:36:33;1.98;;;1.40;;
47225;SDS011;32965;64.142;-21.912;2022-07-18T05:38:59;4.57;;;2.13;;
47225;SDS011;32965;64.142;-21.912;2022-07-18T05:41:25;1.77;;;1.40;;
47225;SDS011;32965;64.142;-21.912;2022-07-18T05:43:50;2.03;;;1.40;;
47225;SDS011;32965;64.142;-21.912;2022-07-18T05:46:16;2.67;;;1.02;;
47225;SDS011;32965;64.142;-21.912;2022-07-18T05:48:42;2.22;;;1.20;;
47225;SDS011;32965;64.142;-21.912;2022-07-18T05:51:08;1.75;;;1.13;;
47225;SDS011;32965;64.142;-21.912;2022-07-18T05:53:34;2.42;;;1.35;;
47225;SDS011;32965;64.142;-21.912;2022-07-18T05:55:59;2.78;;;1.00;;
47225;SDS011;32965;64.142;-21.912;2022-07-18T05:58:25;0.95;;;0.70;;
47225;SDS011;32965;64.142;-21.912;2022-07-18T06:00:51;1.85;;;0.80;;
47225;SDS011;32965;64.142;-21.912;2022-07-18T06:03:17;3.05;;;0.95;;
47225;SDS011;32965;64.142;-21.912;2022-07-18T06:05:42;1.70;;;1.15;;
47225;SDS011;32965;64.142;-21.912;2022-07-18T06:08:08;2.15;;;1.08;;
47225;SDS011;32965;64.142;-21.912;2022-07-18T06:10:34;1.20;;;0.90;;
47225;SDS011;32965;64.142;-21.912;2022-07-18T06:13:00;1.65;;;1.17;;
47225;SDS011;32965;64.142;-21.912;2022-07-18T06:15:26;1.13;;;0.80;;
47225;SDS011;32965;64.142;-21.912;2022-07-18T06:17:52;0.88;;;0.60;;
47225;SDS011;32965;64.142;-21.912;2022-07-18T06:20:17;2.65;;;0.90;;
47225;SDS011;32965;64.142;-21.912;2022-07-18T06:22:43;0.88;;;0.60;;
47225;SDS011;32965;64.142;-21.912;2022-07-18T06:25:09;0.70;;;0.50;;
47225;SDS011;32965;64.142;-21.912;2022-07-18T06:27:36;0.82;;;0.55;;
47225;SDS011;32965;64.142;-21.912;2022-07-18T06:30:02;2.53;;;0.85;;
47225;SDS011;32965;64.142;-21.912;2022-07-18T06:32:29;1.02;;;0.70;;
47225;SDS011;32965;64.142;-21.912;2022-07-18T06:34:55;2.03;;;0.63;;
47225;SDS011;32965;64.142;-21.912;2022-07-18T06:37:21;1.02;;;0.60;;
47225;SDS011;32965;64.142;-21.912;2022-07-18T06:39:47;0.63;;;0.40;;
47225;SDS011;32965;64.142;-21.912;2022-07-18T06:42:12;0.90;;;0.52;;
47225;SDS011;32965;64.142;-21.912;2022-07-18T06:44:38;1.33;;;0.63;;
47225;SDS011;32965;64.142;-21.912;2022-07-18T06:47:04;1.25;;;0.50;;
47225;SDS011;32965;64.142;-21.912;2022-07-18T06:49:30;1.80;;;0.77;;
47225;SDS011;32965;64.142;-21.912;2022-07-18T06:51:56;2.67;;;0.40;;
47225;SDS011;32965;64.142;-21.912;2022-07-18T06:54:21;0.63;;;0.30;;
47225;SDS011;32965;64.142;-21.912;2022-07-18T06:56:53;1.52;;;0.73;;
47225;SDS011;32965;64.142;-21.912;2022-07-18T06:59:19;1.83;;;0.60;;
47225;SDS011;32965;64.142;-21.912;2022-07-18T07:01:46;0.75;;;0.60;;
47225;SDS011;32965;64.142;-21.912;2022-07-18T07:04:12;2.88;;;0.60;;
47225;SDS011;32965;64.142;-21.912;2022-07-18T07:06:38;1.23;;;0.70;;
47225;SDS011;32965;64.142;-21.912;2022-07-18T07:09:04;0.80;;;0.60;;
47225;SDS011;32965;64.142;-21.912;2022-07-18T07:11:30;1.70;;;0.57;;
47225;SDS011;32965;64.142;-21.912;2022-07-18T07:13:56;1.67;;;0.88;;
47225;SDS011;32965;64.142;-21.912;2022-07-18T07:16:22;2.05;;;0.47;;
47225;SDS011;32965;64.142;-21.912;2022-07-18T07:18:49;1.67;;;0.70;;
47225;SDS011;32965;64.142;-21.912;2022-07-18T07:21:15;1.05;;;0.80;;
47225;SDS011;32965;64.142;-21.912;2022-07-18T07:23:41;0.73;;;0.50;;
47225;SDS011;32965;64.142;-21.912;2022-07-18T07:26:07;1.23;;;0.82;;
47225;SDS011;32965;64.142;-21.912;2022-07-18T07:28:34;1.40;;;0.70;;
47225;SDS011;32965;64.142;-21.912;2022-07-18T07:30:59;3.55;;;1.08;;
47225;SDS011;32965;64.142;-21.912;2022-07-18T07:33:26;1.10;;;0.70;;
47225;SDS011;32965;64.142;-21.912;2022-07-18T07:35:52;1.20;;;0.60;;
47225;SDS011;32965;64.142;-21.912;2022-07-18T07:38:17;1.88;;;1.17;;
47225;SDS011;32965;64.142;-21.912;2022-07-18T07:40:44;1.00;;;0.77;;
47225;SDS011;32965;64.142;-21.912;2022-07-18T07:43:13;1.17;;;0.77;;
47225;SDS011;32965;64.142;-21.912;2022-07-18T07:45:40;1.38;;;0.95;;
47225;SDS011;32965;64.142;-21.912;2022-07-18T07:48:06;1.38;;;1.05;;
47225;SDS011;32965;64.142;-21.912;2022-07-18T07:50:32;1.88;;;0.98;;
47225;SDS011;32965;64.142;-21.912;2022-07-18T07:52:58;1.30;;;0.73;;
47225;SDS011;32965;64.142;-21.912;2022-07-18T07:55:25;3.97;;;1.40;;
47225;SDS011;32965;64.142;-21.912;2022-07-18T07:57:50;2.38;;;1.38;;
47225;SDS011;32965;64.142;-21.912;2022-07-18T08:00:17;1.63;;;0.95;;
47225;SDS011;32965;64.142;-21.912;2022-07-18T08:02:52;1.38;;;0.90;;
47225;SDS011;32965;64.142;-21.912;2022-07-18T08:05:19;1.98;;;1.10;;
47225;SDS011;32965;64.142;-21.912;2022-07-18T08:07:45;2.60;;;1.08;;
47225;SDS011;32965;64.142;-21.912;2022-07-18T08:10:12;1.77;;;1.42;;
47225;SDS011;32965;64.142;-21.912;2022-07-18T08:12:39;2.08;;;1.10;;
47225;SDS011;32965;64.142;-21.912;2022-07-18T08:15:05;3.30;;;1.38;;
47225;SDS011;32965;64.142;-21.912;2022-07-18T08:17:31;1.58;;;1.08;;
47225;SDS011;32965;64.142;-21.912;2022-07-18T08:19:57;1.25;;;0.88;;
47225;SDS011;32965;64.142;-21.912;2022-07-18T08:22:23;1.23;;;1.00;;
47225;SDS011;32965;64.142;-21.912;2022-07-18T08:24:49;1.70;;;0.50;;
47225;SDS011;32965;64.142;-21.912;2022-07-18T08:27:15;0.70;;;0.47;;
47225;SDS011;32965;64.142;-21.912;2022-07-18T08:29:40;2.58;;;0.77;;
47225;SDS011;32965;64.142;-21.912;2022-07-18T08:32:06;1.25;;;0.47;;
47225;SDS011;32965;64.142;-21.912;2022-07-18T08:34:33;2.15;;;0.70;;
47225;SDS011;32965;64.142;-21.912;2022-07-18T08:36:59;2.53;;;0.60;;
47225;SDS011;32965;64.142;-21.912;2022-07-18T08:39:25;0.93;;;0.60;;
47225;SDS011;32965;64.142;-21.912;2022-07-18T08:41:50;0.63;;;0.60;;
47225;SDS011;32965;64.142;-21.912;2022-07-18T08:44:17;0.73;;;0.43;;
47225;SDS011;32965;64.142;-21.912;2022-07-18T08:46:50;0.63;;;0.50;;
47225;SDS011;32965;64.142;-21.912;2022-07-18T08:49:19;2.28;;;0.50;;
47225;SDS011;32965;64.142;-21.912;2022-07-18T08:51:46;2.05;;;0.50;;
47225;SDS011;32965;64.142;-21.912;2022-07-18T08:54:12;0.40;;;0.38;;
47225;SDS011;32965;64.142;-21.912;2022-07-18T08:56:38;1.63;;;0.50;;
47225;SDS011;32965;64.142;-21.912;2022-07-18T08:59:04;0.82;;;0.38;;
47225;SDS011;32965;64.142;-21.912;2022-07-18T09:01:30;3.30;;;0.40;;
47225;SDS011;32965;64.142;-21.912;2022-07-18T09:03:56;0.20;;;0.20;;
47225;SDS011;32965;64.142;-21.912;2022-07-18T09:06:45;0.65;;;0.20;;
47225;SDS011;32965;64.142;-21.912;2022-07-18T09:09:16;1.95;;;0.30;;
47225;SDS011;32965;64.142;-21.912;2022-07-18T09:12:15;0.47;;;0.30;;
47225;SDS011;32965;64.142;-21.912;2022-07-18T09:19:35;2.60;;;0.20;;
47225;SDS011;32965;64.142;-21.912;2022-07-18T09:22:13;0.80;;;0.40;;
47225;SDS011;32965;64.142;-21.912;2022-07-18T09:24:51;1.08;;;0.45;;
47225;SDS011;32965;64.142;-21.912;2022-07-18T09:27:33;2.08;;;0.20;;
47225;SDS011;32965;64.142;-21.912;2022-07-18T09:32:32;0.50;;;0.40;;
47225;SDS011;32965;64.142;-21.912;2022-07-18T09:35:03;1.05;;;0.47;;
47225;SDS011;32965;64.142;-21.912;2022-07-18T09:37:34;0.75;;;0.30;;
47225;SDS011;32965;64.142;-21.912;2022-07-18T09:42:42;1.02;;;0.50;;
47225;SDS011;32965;64.142;-21.912;2022-07-18T09:45:08;0.55;;;0.40;;
47225;SDS011;32965;64.142;-21.912;2022-07-18T09:47:54;1.60;;;0.30;;
47225;SDS011;32965;64.142;-21.912;2022-07-18T09:50:22;0.85;;;0.50;;
47225;SDS011;32965;64.142;-21.912;2022-07-18T09:55:32;1.02;;;0.40;;
47225;SDS011;32965;64.142;-21.912;2022-07-18T09:57:59;1.33;;;0.45;;
47225;SDS011;32965;64.142;-21.912;2022-07-18T10:00:28;1.65;;;0.15;;
47225;SDS011;32965;64.142;-21.912;2022-07-18T10:02:55;2.40;;;0.50;;
47225;SDS011;32965;64.142;-21.912;2022-07-18T10:05:24;2.38;;;0.60;;
47225;SDS011;32965;64.142;-21.912;2022-07-18T10:07:51;1.30;;;0.50;;
47225;SDS011;32965;64.142;-21.912;2022-07-18T10:10:17;0.95;;;0.35;;
47225;SDS011;32965;64.142;-21.912;2022-07-18T10:12:44;3.75;;;0.63;;
47225;SDS011;32965;64.142;-21.912;2022-07-18T10:15:10;1.50;;;0.70;;
47225;SDS011;32965;64.142;-21.912;2022-07-18T10:17:36;3.38;;;0.77;;
47225;SDS011;32965;64.142;-21.912;2022-07-18T10:20:05;0.43;;;0.40;;
47225;SDS011;32965;64.142;-21.912;2022-07-18T10:22:39;1.73;;;0.63;;
47225;SDS011;32965;64.142;-21.912;2022-07-18T10:25:07;3.20;;;0.93;;
47225;SDS011;32965;64.142;-21.912;2022-07-18T10:28:01;1.08;;;0.50;;
47225;SDS011;32965;64.142;-21.912;2022-07-18T10:30:32;0.80;;;0.50;;
47225;SDS011;32965;64.142;-21.912;2022-07-18T10:33:00;4.13;;;0.60;;
47225;SDS011;32965;64.142;-21.912;2022-07-18T10:38:32;2.33;;;0.50;;
47225;SDS011;32965;64.142;-21.912;2022-07-18T10:41:03;1.17;;;0.85;;
47225;SDS011;32965;64.142;-21.912;2022-07-18T10:43:31;0.85;;;0.75;;
47225;SDS011;32965;64.142;-21.912;2022-07-18T10:46:03;1.55;;;0.80;;
47225;SDS011;32965;64.142;-21.912;2022-07-18T10:59:23;1.98;;;0.75;;
47225;SDS011;32965;64.142;-21.912;2022-07-18T11:01:54;0.85;;;0.77;;
47225;SDS011;32965;64.142;-21.912;2022-07-18T11:06:56;2.05;;;0.77;;
47225;SDS011;32965;64.142;-21.912;2022-07-18T11:09:53;1.20;;;0.47;;
47225;SDS011;32965;64.142;-21.912;2022-07-18T11:12:24;2.97;;;1.15;;
47225;SDS011;32965;64.142;-21.912;2022-07-18T11:15:09;1.00;;;0.50;;
47225;SDS011;32965;64.142;-21.912;2022-07-18T11:20:25;1.83;;;0.73;;
47225;SDS011;32965;64.142;-21.912;2022-07-18T11:22:58;1.90;;;1.00;;
47225;SDS011;32965;64.142;-21.912;2022-07-18T11:25:24;2.05;;;1.02;;
47225;SDS011;32965;64.142;-21.912;2022-07-18T11:27:52;4.25;;;1.20;;
47225;SDS011;32965;64.142;-21.912;2022-07-18T11:30:19;3.15;;;1.00;;
47225;SDS011;32965;64.142;-21.912;2022-07-18T11:32:46;0.80;;;0.47;;
47225;SDS011;32965;64.142;-21.912;2022-07-18T11:35:13;2.65;;;0.95;;
47225;SDS011;32965;64.142;-21.912;2022-07-18T11:37:39;2.15;;;0.80;;
47225;SDS011;32965;64.142;-21.912;2022-07-18T11:40:12;1.75;;;0.63;;
47225;SDS011;32965;64.142;-21.912;2022-07-18T11:42:39;1.30;;;0.60;;
47225;SDS011;32965;64.142;-21.912;2022-07-18T11:45:06;0.77;;;0.65;;
47225;SDS011;32965;64.142;-21.912;2022-07-18T11:47:52;1.33;;;0.75;;
47225;SDS011;32965;64.142;-21.912;2022-07-18T11:50:26;2.53;;;0.77;;
47225;SDS011;32965;64.142;-21.912;2022-07-18T11:52:59;1.48;;;0.70;;
47225;SDS011;32965;64.142;-21.912;2022-07-18T11:55:37;2.58;;;0.50;;
47225;SDS011;32965;64.142;-21.912;2022-07-18T11:58:21;1.20;;;0.68;;
47225;SDS011;32965;64.142;-21.912;2022-07-18T12:00:47;2.53;;;0.90;;
47225;SDS011;32965;64.142;-21.912;2022-07-18T12:03:20;0.80;;;0.60;;
47225;SDS011;32965;64.142;-21.912;2022-07-18T12:05:49;1.48;;;0.60;;
47225;SDS011;32965;64.142;-21.912;2022-07-18T12:11:05;3.00;;;0.45;;
47225;SDS011;32965;64.142;-21.912;2022-07-18T12:16:35;3.78;;;1.38;;
47225;SDS011;32965;64.142;-21.912;2022-07-18T12:19:06;2.35;;;1.33;;
47225;SDS011;32965;64.142;-21.912;2022-07-18T12:24:26;2.40;;;1.02;;
47225;SDS011;32965;64.142;-21.912;2022-07-18T12:35:17;4.13;;;1.80;;
47225;SDS011;32965;64.142;-21.912;2022-07-18T12:40:25;5.50;;;2.40;;
47225;SDS011;32965;64.142;-21.912;2022-07-18T12:43:02;4.65;;;2.28;;
47225;SDS011;32965;64.142;-21.912;2022-07-18T12:45:31;4.25;;;2.35;;
47225;SDS011;32965;64.142;-21.912;2022-07-18T12:47:56;4.88;;;2.55;;
47225;SDS011;32965;64.142;-21.912;2022-07-18T12:50:22;3.67;;;2.08;;
47225;SDS011;32965;64.142;-21.912;2022-07-18T12:52:48;3.83;;;1.60;;
47225;SDS011;32965;64.142;-21.912;2022-07-18T12:55:14;3.50;;;2.05;;
47225;SDS011;32965;64.142;-21.912;2022-07-18T12:57:40;3.70;;;1.80;;
47225;SDS011;32965;64.142;-21.912;2022-07-18T13:00:06;3.53;;;1.77;;
47225;SDS011;32965;64.142;-21.912;2022-07-18T13:02:33;3.70;;;1.92;;
47225;SDS011;32965;64.142;-21.912;2022-07-18T13:04:58;5.22;;;1.75;;
47225;SDS011;32965;64.142;-21.912;2022-07-18T13:07:24;3.70;;;1.88;;
47225;SDS011;32965;64.142;-21.912;2022-07-18T13:09:50;3.67;;;2.25;;
47225;SDS011;32965;64.142;-21.912;2022-07-18T13:12:16;5.10;;;2.15;;
47225;SDS011;32965;64.142;-21.912;2022-07-18T13:14:42;2.47;;;1.77;;
47225;SDS011;32965;64.142;-21.912;2022-07-18T13:17:07;3.22;;;1.88;;
47225;SDS011;32965;64.142;-21.912;2022-07-18T13:19:33;4.03;;;1.98;;
47225;SDS011;32965;64.142;-21.912;2022-07-18T13:21:59;2.47;;;1.75;;
47225;SDS011;32965;64.142;-21.912;2022-07-18T13:24:25;2.63;;;1.83;;
47225;SDS011;32965;64.142;-21.912;2022-07-18T13:26:51;2.33;;;1.67;;
47225;SDS011;32965;64.142;-21.912;2022-07-18T13:29:16;2.78;;;1.48;;
47225;SDS011;32965;64.142;-21.912;2022-07-18T13:31:42;3.53;;;1.95;;
47225;SDS011;32965;64.142;-21.912;2022-07-18T13:34:08;2.60;;;1.90;;
47225;SDS011;32965;64.142;-21.912;2022-07-18T13:36:34;1.92;;;1.50;;
47225;SDS011;32965;64.142;-21.912;2022-07-18T13:39:00;1.27;;;1.00;;
47225;SDS011;32965;64.142;-21.912;2022-07-18T13:41:28;1.63;;;1.17;;
47225;SDS011;32965;64.142;-21.912;2022-07-18T13:43:55;2.30;;;1.50;;
47225;SDS011;32965;64.142;-21.912;2022-07-18T13:48:49;2.45;;;1.58;;
47225;SDS011;32965;64.142;-21.912;2022-07-18T13:51:16;2.55;;;1.50;;
47225;SDS011;32965;64.142;-21.912;2022-07-18T13:53:43;3.72;;;1.25;;
47225;SDS011;32965;64.142;-21.912;2022-07-18T13:56:09;2.08;;;1.00;;
47225;SDS011;32965;64.142;-21.912;2022-07-18T13:58:35;2.08;;;1.70;;
47225;SDS011;32965;64.142;-21.912;2022-07-18T14:01:01;2.13;;;1.60;;
47225;SDS011;32965;64.142;-21.912;2022-07-18T14:03:26;4.18;;;2.47;;
47225;SDS011;32965;64.142;-21.912;2022-07-18T14:05:52;3.65;;;2.20;;
47225;SDS011;32965;64.142;-21.912;2022-07-18T14:08:18;2.80;;;1.20;;
47225;SDS011;32965;64.142;-21.912;2022-07-18T14:10:44;2.22;;;1.40;;
47225;SDS011;32965;64.142;-21.912;2022-07-18T14:13:10;1.30;;;1.00;;
47225;SDS011;32965;64.142;-21.912;2022-07-18T14:15:36;3.13;;;1.55;;
47225;SDS011;32965;64.142;-21.912;2022-07-18T14:18:01;2.55;;;1.15;;
47225;SDS011;32965;64.142;-21.912;2022-07-18T14:20:29;4.63;;;2.22;;
47225;SDS011;32965;64.142;-21.912;2022-07-18T14:22:55;2.75;;;1.50;;
47225;SDS011;32965;64.142;-21.912;2022-07-18T14:25:22;3.55;;;1.40;;
47225;SDS011;32965;64.142;-21.912;2022-07-18T14:27:47;2.05;;;1.30;;
47225;SDS011;32965;64.142;-21.912;2022-07-18T14:30:14;3.28;;;1.67;;
47225;SDS011;32965;64.142;-21.912;2022-07-18T14:32:41;2.33;;;1.50;;
47225;SDS011;32965;64.142;-21.912;2022-07-18T14:35:07;2.33;;;1.45;;
47225;SDS011;32965;64.142;-21.912;2022-07-18T14:37:34;2.25;;;0.90;;
47225;SDS011;32965;64.142;-21.912;2022-07-18T14:40:00;1.73;;;0.90;;
47225;SDS011;32965;64.142;-21.912;2022-07-18T14:42:27;1.52;;;0.95;;
47225;SDS011;32965;64.142;-21.912;2022-07-18T14:44:54;2.17;;;1.20;;
47225;SDS011;32965;64.142;-21.912;2022-07-18T14:47:20;2.45;;;1.13;;
47225;SDS011;32965;64.142;-21.912;2022-07-18T14:49:46;1.25;;;1.10;;
47225;SDS011;32965;64.142;-21.912;2022-07-18T14:52:12;4.45;;;1.40;;
47225;SDS011;32965;64.142;-21.912;2022-07-18T14:54:38;1.98;;;1.30;;
47225;SDS011;32965;64.142;-21.912;2022-07-18T14:57:04;1.52;;;0.98;;
47225;SDS011;32965;64.142;-21.912;2022-07-18T14:59:30;3.70;;;1.50;;
47225;SDS011;32965;64.142;-21.912;2022-07-18T15:01:56;1.65;;;1.40;;
47225;SDS011;32965;64.142;-21.912;2022-07-18T15:04:26;2.17;;;1.50;;
47225;SDS011;32965;64.142;-21.912;2022-07-18T15:06:52;2.13;;;1.70;;
47225;SDS011;32965;64.142;-21.912;2022-07-18T15:09:19;29.42;;;12.80;;
47225;SDS011;32965;64.142;-21.912;2022-07-18T15:11:51;3.72;;;2.05;;
47225;SDS011;32965;64.142;-21.912;2022-07-18T15:14:16;4.07;;;1.65;;
47225;SDS011;32965;64.142;-21.912;2022-07-18T15:16:42;2.88;;;1.85;;
47225;SDS011;32965;64.142;-21.912;2022-07-18T15:19:08;6.15;;;2.78;;